createdAt,value
2019-02-28T01:44:11.333Z,1.90
2019-02-28T01:46:40.332Z,1.70
2019-02-28T01:49:10.949Z,2.53
2019-02-28T01:51:40.349Z,2.30
2019-02-28T01:54:53.034Z,1.97
2019-02-28T01:57:45.958Z,2.30
2019-02-28T02:00:57.323Z,1.50
2019-02-28T02:03:28.337Z,2.17
2019-02-28T02:05:57.748Z,2.10
2019-02-28T02:08:27.736Z,2.90
2019-02-28T02:10:56.954Z,2.70
2019-02-28T02:17:04.225Z,1.80
2019-02-28T02:20:11.033Z,2.20
2019-02-28T02:23:21.171Z,2.17
2019-02-28T02:25:52.656Z,1.80
2019-02-28T02:28:26.657Z,2.33
2019-02-28T02:30:52.947Z,2.77
2019-02-28T02:37:31.377Z,2.93
2019-02-28T02:43:06.247Z,3.00
2019-02-28T02:45:41.775Z,1.80
2019-02-28T02:48:06.857Z,2.40
2019-02-28T02:50:36.331Z,2.30
2019-02-28T02:53:24.534Z,2.23
2019-02-28T02:55:53.536Z,1.60
2019-02-28T02:58:26.640Z,1.60
2019-02-28T03:00:53.887Z,1.87
2019-02-28T03:03:23.292Z,1.83
2019-02-28T03:05:52.565Z,2.27
2019-02-28T03:08:21.591Z,1.80
2019-02-28T03:10:52.752Z,1.87
2019-02-28T03:13:43.677Z,2.07
2019-02-28T03:16:12.923Z,1.13
2019-02-28T03:18:42.315Z,1.33
2019-02-28T03:21:14.982Z,1.97
2019-02-28T03:23:42.190Z,1.77
2019-02-28T03:26:11.251Z,2.10
2019-02-28T03:28:40.979Z,1.73
2019-02-28T03:31:14.431Z,1.73
2019-02-28T03:34:13.225Z,1.70
2019-02-28T03:36:37.038Z,1.77
2019-02-28T03:39:06.905Z,1.63
2019-02-28T03:41:36.318Z,1.70
2019-02-28T03:44:05.526Z,1.70
2019-02-28T03:46:34.865Z,1.97
2019-02-28T03:49:11.098Z,1.30
2019-02-28T03:51:35.092Z,1.70
2019-02-28T03:54:11.138Z,2.63
2019-02-28T03:56:40.582Z,2.30
2019-02-28T03:59:09.659Z,3.20
2019-02-28T04:01:44.801Z,3.10
2019-02-28T04:04:12.118Z,2.80
2019-02-28T04:06:41.076Z,2.60
2019-02-28T04:09:10.465Z,3.37
2019-02-28T04:11:52.367Z,2.13
2019-02-28T04:14:21.440Z,2.20
2019-02-28T04:16:54.200Z,2.23
2019-02-28T04:19:22.839Z,2.20
2019-02-28T04:22:14.606Z,1.80
2019-02-28T04:24:46.246Z,1.90
2019-02-28T04:27:22.908Z,2.03
2019-02-28T04:29:51.989Z,2.07
2019-02-28T04:32:26.673Z,1.60
2019-02-28T04:34:51.842Z,2.73
2019-02-28T04:37:21.244Z,1.97
2019-02-28T04:39:53.346Z,1.43
2019-02-28T04:42:21.272Z,2.07
2019-02-28T04:44:51.914Z,2.20
2019-02-28T04:47:22.279Z,2.10
2019-02-28T04:49:53.511Z,1.87
2019-02-28T04:52:22.446Z,2.03
2019-02-28T04:54:51.670Z,2.20
2019-02-28T04:57:23.039Z,2.10
2019-02-28T04:59:52.369Z,1.70
2019-02-28T07:34:47.493Z,7.47
2019-02-28T07:37:19.028Z,6.57
2019-02-28T07:39:47.719Z,7.93
2019-02-28T07:42:16.719Z,7.87
2019-02-28T07:44:45.712Z,8.97
2019-02-28T07:47:17.533Z,10.33
2019-02-28T07:49:45.578Z,9.50
2019-02-28T07:52:15.111Z,9.03
2019-02-28T07:55:00.268Z,9.30
2019-02-28T07:57:29.995Z,8.93
2019-02-28T07:59:59.967Z,9.07
2019-02-28T08:02:29.113Z,9.87
2019-02-28T08:04:58.310Z,10.13
2019-02-28T08:07:27.373Z,10.20
2019-02-28T08:09:58.092Z,9.23
2019-02-28T08:12:30.837Z,10.40
2019-02-28T08:14:58.741Z,11.07
2019-02-28T08:17:28.070Z,11.13
2019-02-28T08:19:58.778Z,10.83
2019-02-28T08:22:28.046Z,10.40
2019-02-28T08:24:57.278Z,9.83
2019-02-28T08:27:26.487Z,11.60
2019-02-28T08:29:56.069Z,10.33
2019-02-28T08:32:25.854Z,10.30
2019-02-28T08:34:59.554Z,11.17
2019-02-28T08:37:26.982Z,8.67
2019-02-28T08:39:56.665Z,12.67
2019-02-28T08:42:26.094Z,12.00
2019-02-28T08:44:58.947Z,8.90
2019-02-28T08:47:26.533Z,11.77
2019-02-28T08:49:55.949Z,10.87
2019-02-28T08:52:25.325Z,11.07
2019-02-28T08:54:54.916Z,10.83
2019-02-28T08:57:25.669Z,12.00
2019-02-28T08:59:56.385Z,10.30
2019-02-28T09:02:25.890Z,11.20
2019-02-28T09:04:55.604Z,10.90
2019-02-28T09:07:24.967Z,11.23
2019-02-28T09:09:54.309Z,10.60
2019-02-28T09:12:23.558Z,11.13
2019-02-28T09:14:55.405Z,11.30
2019-02-28T09:17:23.593Z,11.33
2019-02-28T09:19:53.007Z,12.03
2019-02-28T09:22:26.964Z,11.53
2019-02-28T09:24:52.660Z,12.60
2019-02-28T09:27:21.643Z,11.53
2019-02-28T09:29:54.470Z,12.30
2019-02-28T09:32:21.943Z,11.00
2019-02-28T09:34:51.242Z,11.13
2019-02-28T09:37:22.514Z,11.67
2019-02-28T09:39:54.297Z,11.03
2019-02-28T09:42:22.648Z,9.93
2019-02-28T09:44:52.061Z,9.53
2019-02-28T09:47:23.369Z,9.57
2019-02-28T09:49:53.046Z,9.67
2019-02-28T09:52:22.827Z,8.50
2019-02-28T09:54:51.851Z,8.80
2019-02-28T09:57:22.650Z,8.73
2019-02-28T09:59:51.807Z,8.00
2019-02-28T10:02:20.879Z,8.77
2019-02-28T10:04:50.152Z,9.73
2019-02-28T10:07:19.916Z,7.70
2019-02-28T10:09:49.393Z,8.67
2019-02-28T10:12:18.826Z,9.73
2019-02-28T10:14:48.236Z,8.73
2019-02-28T10:17:17.317Z,8.10
2019-02-28T10:19:51.970Z,8.80
2019-02-28T10:22:18.259Z,7.97
2019-02-28T10:24:48.532Z,9.43
2019-02-28T10:27:17.560Z,8.87
2019-02-28T10:29:46.585Z,8.03
2019-02-28T10:32:15.904Z,7.90
2019-02-28T10:34:45.613Z,8.20
2019-02-28T10:37:14.880Z,8.63
2019-02-28T10:39:45.268Z,8.47
2019-02-28T10:42:14.748Z,8.93
2019-02-28T10:44:44.058Z,10.20
2019-02-28T10:47:13.935Z,8.37
2019-02-28T10:49:43.260Z,9.40
2019-02-28T10:52:12.225Z,9.20
2019-02-28T10:54:41.715Z,10.03
2019-02-28T10:57:10.996Z,9.83
2019-02-28T10:59:41.722Z,10.10
2019-02-28T11:02:13.916Z,10.20
2019-02-28T11:04:43.813Z,8.87
2019-02-28T11:07:13.328Z,9.00
2019-02-28T11:09:42.252Z,11.00
2019-02-28T11:12:11.423Z,10.07
2019-02-28T11:14:40.715Z,10.63
2019-02-28T11:17:13.692Z,10.37
2019-02-28T11:19:40.557Z,9.63
2019-02-28T11:22:09.894Z,10.00
2019-02-28T11:24:39.090Z,11.30
2019-02-28T11:27:08.388Z,10.87
2019-02-28T11:29:37.753Z,11.20
2019-02-28T11:32:07.496Z,9.93
2019-02-28T11:34:36.661Z,10.60
2019-02-28T11:37:08.893Z,9.60
2019-02-28T11:39:37.993Z,9.80
2019-02-28T11:42:07.233Z,10.57
2019-02-28T11:44:36.244Z,9.30
2019-02-28T11:47:08.398Z,8.20
2019-02-28T11:49:36.171Z,8.90
2019-02-28T11:52:05.376Z,9.40
2019-02-28T11:54:34.674Z,8.77
2019-02-28T11:57:06.743Z,9.80
2019-02-28T11:59:34.936Z,9.60
2019-02-28T12:02:04.410Z,11.60
2019-02-28T12:04:33.763Z,9.80
2019-02-28T12:07:03.007Z,10.20
2019-02-28T12:09:32.633Z,8.93
2019-02-28T12:12:01.922Z,9.30
2019-02-28T12:14:31.288Z,9.20
2019-02-28T12:17:00.350Z,9.70
2019-02-28T12:19:29.382Z,8.80
2019-02-28T12:22:00.130Z,9.93
2019-02-28T12:24:29.440Z,10.10
2019-02-28T12:27:00.199Z,10.70
2019-02-28T12:29:29.566Z,10.67
2019-02-28T12:31:58.484Z,10.07
2019-02-28T12:34:28.748Z,10.03
2019-02-28T12:36:59.941Z,7.83
2019-02-28T12:39:29.006Z,11.77
2019-02-28T12:41:59.491Z,12.30
2019-02-28T12:44:29.194Z,11.23
2019-02-28T12:46:58.647Z,14.77
2019-02-28T12:49:27.849Z,13.00
2019-02-28T12:51:57.064Z,12.00
2019-02-28T12:54:26.214Z,11.37
2019-02-28T12:56:55.597Z,10.97
2019-02-28T12:59:24.645Z,12.30
2019-02-28T13:01:54.025Z,10.40
2019-02-28T13:04:23.762Z,13.27
2019-02-28T13:06:55.477Z,11.03
2019-02-28T13:09:23.783Z,12.77
2019-02-28T13:11:52.891Z,10.63
2019-02-28T13:14:22.052Z,9.37
2019-02-28T13:16:54.515Z,10.53
2019-02-28T13:19:22.043Z,10.63
2019-02-28T13:21:51.202Z,10.77
2019-02-28T13:24:20.483Z,11.43
2019-02-28T13:26:50.444Z,10.50
2019-02-28T13:29:22.121Z,10.23
2019-02-28T13:31:50.660Z,10.30
2019-02-28T19:48:33.729Z,13.37
2019-02-28T19:51:03.150Z,12.90
2019-02-28T19:53:33.194Z,16.13
2019-02-28T19:56:02.658Z,12.77
2019-02-28T19:58:31.680Z,12.83
2019-02-28T20:01:00.838Z,13.50
2019-02-28T20:03:30.159Z,14.07
2019-02-28T20:05:59.929Z,14.40
2019-02-28T20:08:29.218Z,13.40
2019-02-28T20:10:58.342Z,14.20
2019-02-28T20:13:27.648Z,15.47
2019-02-28T20:16:03.765Z,13.80
2019-02-28T20:18:33.742Z,13.67
2019-02-28T20:21:03.134Z,13.00
2019-02-28T20:23:33.195Z,13.30
2019-02-28T20:26:02.878Z,14.27
2019-02-28T20:28:32.219Z,13.23
2019-02-28T20:31:01.359Z,14.27
2019-02-28T20:33:30.518Z,13.93
2019-02-28T20:36:00.040Z,13.80
2019-02-28T20:38:29.566Z,13.90
2019-02-28T20:41:00.872Z,12.03
2019-02-28T20:43:35.367Z,13.30
2019-02-28T20:46:05.817Z,14.00
2019-02-28T20:48:34.858Z,12.97
2019-02-28T20:51:05.246Z,14.50
2019-02-28T20:53:35.083Z,12.70
2019-02-28T20:56:05.892Z,12.43
2019-02-28T20:58:35.129Z,13.13
2019-02-28T21:01:05.006Z,14.90
2019-02-28T21:03:35.066Z,14.10
2019-02-28T21:06:04.465Z,13.97
2019-02-28T21:08:34.172Z,14.60
2019-02-28T21:11:03.818Z,13.57
2019-02-28T21:13:33.859Z,14.07
2019-02-28T21:16:04.059Z,15.27
2019-02-28T21:18:42.529Z,14.37
2019-02-28T21:21:23.903Z,15.00
2019-02-28T21:24:21.384Z,15.37
2019-02-28T21:30:03.578Z,13.97
2019-02-28T21:32:35.215Z,14.77
2019-02-28T21:35:07.282Z,13.40
2019-02-28T21:37:38.021Z,14.90
2019-02-28T21:40:08.273Z,16.40
2019-02-28T21:42:37.550Z,13.50
2019-02-28T21:45:07.342Z,15.30
2019-02-28T21:47:36.408Z,14.83
2019-02-28T21:50:06.352Z,15.47
2019-02-28T21:52:35.993Z,16.27
2019-02-28T21:55:05.834Z,15.67
2019-02-28T21:57:34.852Z,15.90
2019-02-28T22:00:04.636Z,15.97
2019-02-28T22:02:33.793Z,15.27
2019-02-28T22:05:02.871Z,16.27
2019-02-28T22:07:31.991Z,16.10
2019-02-28T22:10:01.263Z,17.00
2019-02-28T22:12:30.212Z,16.13
2019-02-28T22:14:59.532Z,14.40
2019-02-28T22:17:28.776Z,15.60
2019-02-28T22:19:58.897Z,16.10
2019-02-28T22:22:28.380Z,16.67
2019-02-28T22:24:57.594Z,15.53
2019-02-28T22:27:26.593Z,15.27
2019-02-28T22:29:57.838Z,17.00
2019-02-28T22:32:52.169Z,16.00
2019-02-28T22:35:28.769Z,15.97
2019-02-28T22:37:58.030Z,16.30
2019-02-28T22:40:27.122Z,16.57
2019-02-28T22:42:56.216Z,15.77
2019-02-28T22:45:25.517Z,15.00
2019-02-28T22:47:54.878Z,16.67
2019-02-28T22:50:24.226Z,16.03
2019-02-28T22:52:53.861Z,16.10
2019-02-28T22:55:22.950Z,15.40
2019-02-28T22:57:53.803Z,15.47
2019-02-28T23:00:46.366Z,15.60
2019-02-28T23:03:15.414Z,15.60
2019-02-28T23:05:45.026Z,14.00
2019-02-28T23:08:13.956Z,13.53
2019-02-28T23:10:42.917Z,13.43
2019-02-28T23:13:12.165Z,14.60
2019-02-28T23:15:41.297Z,13.67
2019-02-28T23:18:10.478Z,14.17
2019-02-28T23:20:39.462Z,13.53
2019-02-28T23:23:08.698Z,12.63
2019-02-28T23:25:37.730Z,14.13
2019-02-28T23:28:10.809Z,13.97
2019-02-28T23:30:48.604Z,13.70
2019-02-28T23:33:18.431Z,15.07
2019-02-28T23:35:47.917Z,14.33
2019-02-28T23:38:17.010Z,12.40
2019-02-28T23:40:46.281Z,12.50
2019-02-28T23:43:15.357Z,13.63
2019-02-28T23:45:45.561Z,12.83
2019-02-28T23:48:14.563Z,12.83
2019-02-28T23:50:43.569Z,13.40
2019-02-28T23:53:12.537Z,14.43
2019-02-28T23:55:42.361Z,12.80
2019-02-28T23:58:14.981Z,11.93
